createdAt,value
2016-04-06T00:00:45.132Z,1007.95
2016-04-06T00:01:42.072Z,1007.96
2016-04-06T00:02:42.029Z,1007.98
2016-04-06T00:03:41.984Z,1008.05
2016-04-06T00:04:41.924Z,1008.05
2016-04-06T00:05:41.895Z,1008.03
2016-04-06T00:06:41.835Z,1008.04
2016-04-06T00:07:44.792Z,1008.03
2016-04-06T00:08:41.747Z,1008.04
2016-04-06T00:09:41.687Z,1007.99
2016-04-06T00:10:41.642Z,1008.03
2016-04-06T00:11:41.598Z,1008.05
2016-04-06T00:12:41.555Z,1008.06
2016-04-06T00:13:41.510Z,1008.08
2016-04-06T00:14:44.466Z,1008.06
2016-04-06T00:15:41.422Z,1008.06
2016-04-06T00:16:41.377Z,1008.08
2016-04-06T00:17:41.318Z,1008.08
2016-04-06T00:18:41.274Z,1008.02
2016-04-06T00:19:41.230Z,1008.03
2016-04-06T00:20:41.185Z,1008.07
2016-04-06T00:21:41.141Z,1008.05
2016-04-06T00:22:41.082Z,1008.03
2016-04-06T00:23:41.053Z,1008.04
2016-04-06T00:24:41.196Z,1008.05
2016-04-06T00:25:40.949Z,1008.04
2016-04-06T00:26:40.904Z,1008.03
2016-04-06T00:27:40.860Z,1008.02
2016-04-06T00:28:40.801Z,1008.07
2016-04-06T00:29:40.757Z,1008.01
2016-04-06T00:30:40.713Z,1008.03
2016-04-06T00:31:40.669Z,1008.03
2016-04-06T00:32:40.624Z,1008.02
2016-04-06T00:33:40.565Z,1008.02
2016-04-06T00:34:40.520Z,1007.99
2016-04-06T00:35:40.492Z,1007.99
2016-04-06T00:36:40.431Z,1007.97
2016-04-06T00:37:40.403Z,1007.99
2016-04-06T00:38:40.343Z,1007.97
2016-04-06T00:39:40.284Z,1008
2016-04-06T00:40:40.240Z,1007.97
2016-04-06T00:41:40.195Z,1008.01
2016-04-06T00:42:43.167Z,1008.01
2016-04-06T00:43:40.106Z,1008.01
2016-04-06T00:44:40.062Z,1008.02
2016-04-06T00:45:40.019Z,1008.01
2016-04-06T00:46:39.974Z,1008
2016-04-06T00:47:39.931Z,1008.04
2016-04-06T00:48:39.870Z,1008
2016-04-06T00:49:39.826Z,1007.99
2016-04-06T00:50:42.797Z,1008.02
2016-04-06T00:51:39.722Z,1008
2016-04-06T00:52:39.678Z,1008.04
2016-04-06T00:53:39.633Z,1008
2016-04-06T00:54:39.589Z,1008.04
2016-04-06T00:55:39.545Z,1008.04
2016-04-06T00:56:39.486Z,1008
2016-04-06T00:57:39.457Z,1008.03
2016-04-06T00:58:39.397Z,1007.97
2016-04-06T00:59:39.353Z,1008.03
2016-04-06T01:00:39.309Z,1008.02
2016-04-06T01:01:42.468Z,1008
2016-04-06T01:02:39.221Z,1008.01
2016-04-06T01:03:39.160Z,1008.03
2016-04-06T01:04:39.116Z,1008.04
2016-04-06T01:05:39.087Z,1008.02
2016-04-06T01:06:39.028Z,1007.96
2016-04-06T01:07:38.984Z,1007.97
2016-04-06T01:08:39.143Z,1007.96
2016-04-06T01:09:38.896Z,1007.94
2016-04-06T01:10:38.836Z,1007.93
2016-04-06T01:11:38.792Z,1007.96
2016-04-06T01:12:38.747Z,1007.95
2016-04-06T01:13:38.703Z,1007.97
2016-04-06T01:14:38.659Z,1007.96
2016-04-06T01:15:38.600Z,1007.96
2016-04-06T01:16:41.571Z,1007.94
2016-04-06T01:17:41.526Z,1007.95
2016-04-06T01:18:38.467Z,1007.95
2016-04-06T01:19:38.469Z,1007.97
2016-04-06T01:20:38.581Z,1007.92
2016-04-06T01:21:38.334Z,1007.93
2016-04-06T01:22:38.274Z,1007.94
2016-04-06T01:23:38.230Z,1007.94
2016-04-06T01:24:38.185Z,1007.93
2016-04-06T01:25:38.142Z,1007.87
2016-04-06T01:26:41.097Z,1007.88
2016-04-06T01:27:38.053Z,1007.91
2016-04-06T01:28:37.994Z,1007.88
2016-04-06T01:29:37.949Z,1007.88
2016-04-06T01:30:37.921Z,1007.91
2016-04-06T01:31:37.860Z,1007.9
2016-04-06T01:32:37.863Z,1007.92
2016-04-06T01:33:37.772Z,1007.88
2016-04-06T01:34:37.712Z,1007.93
2016-04-06T01:35:37.684Z,1007.94
2016-04-06T01:36:40.624Z,1007.94
2016-04-06T01:37:37.768Z,1007.93
2016-04-06T01:38:40.537Z,1007.93
2016-04-06T01:39:37.492Z,1007.94
2016-04-06T01:40:37.448Z,1007.93
2016-04-06T01:41:37.387Z,1007.94
2016-04-06T01:42:37.343Z,1007.96
2016-04-06T01:43:37.300Z,1007.95
2016-04-06T01:44:37.256Z,1007.94
2016-04-06T01:45:37.196Z,1007.96
2016-04-06T01:46:37.167Z,1007.96
2016-04-06T01:47:40.326Z,1007.88
2016-04-06T01:48:37.063Z,1007.96
2016-04-06T01:49:37.019Z,1007.93
2016-04-06T01:50:36.974Z,1007.93
2016-04-06T01:51:36.930Z,1007.94
2016-04-06T01:52:39.886Z,1007.97
2016-04-06T01:53:39.841Z,1007.89
2016-04-06T01:54:39.798Z,1007.91
2016-04-06T01:55:36.738Z,1007.91
2016-04-06T01:56:36.694Z,1007.91
2016-04-06T01:57:36.650Z,1007.9
2016-04-06T01:58:36.590Z,1007.92
2016-04-06T01:59:36.546Z,1007.89
2016-04-06T02:00:36.501Z,1007.91
2016-04-06T02:01:36.473Z,1007.92
2016-04-06T02:02:36.412Z,1007.92
2016-04-06T02:03:36.368Z,1007.95
2016-04-06T02:04:39.324Z,1007.92
2016-04-06T02:05:36.265Z,1007.91
2016-04-06T02:06:36.221Z,1007.89
2016-04-06T02:07:36.176Z,1007.91
2016-04-06T02:08:36.124Z,1007.91
2016-04-06T02:09:36.080Z,1007.88
2016-04-06T02:10:36.037Z,1007.9
2016-04-06T02:11:35.993Z,1007.91
2016-04-06T02:12:35.948Z,1007.9
2016-04-06T02:13:35.888Z,1007.93
2016-04-06T02:14:35.844Z,1007.89
2016-04-06T02:15:35.801Z,1007.9
2016-04-06T02:16:35.757Z,1007.89
2016-04-06T02:17:35.712Z,1007.94
2016-04-06T02:18:35.668Z,1007.93
2016-04-06T02:19:35.623Z,1007.96
2016-04-06T02:20:38.564Z,1007.94
2016-04-06T02:21:35.520Z,1007.96
2016-04-06T02:22:38.476Z,1007.9
2016-04-06T02:23:35.432Z,1007.93
2016-04-06T02:24:35.371Z,1007.92
2016-04-06T02:25:35.359Z,1007.9
2016-04-06T02:26:35.283Z,1007.92
2016-04-06T02:27:35.239Z,1007.87
2016-04-06T02:28:35.194Z,1007.92
2016-04-06T02:29:35.150Z,1007.88
2016-04-06T02:30:35.106Z,1007.89
2016-04-06T02:31:35.047Z,1007.87
2016-04-06T02:32:35.003Z,1007.87
2016-04-06T02:33:34.959Z,1007.89
2016-04-06T02:34:34.914Z,1007.89
2016-04-06T02:35:34.855Z,1007.91
2016-04-06T02:36:34.825Z,1007.85
2016-04-06T02:37:34.766Z,1007.88
2016-04-06T02:38:37.722Z,1007.86
2016-04-06T02:39:34.677Z,1007.89
2016-04-06T02:40:34.633Z,1007.88
2016-04-06T02:41:34.589Z,1007.91
2016-04-06T02:42:34.544Z,1007.91
2016-04-06T02:43:34.485Z,1007.88
2016-04-06T02:44:34.457Z,1007.89
2016-04-06T02:45:34.397Z,1007.92
2016-04-06T02:46:34.352Z,1007.93
2016-04-06T02:47:34.308Z,1007.91
2016-04-06T02:48:34.264Z,1007.89
2016-04-06T02:49:34.220Z,1007.95
2016-04-06T02:50:34.160Z,1007.94
2016-04-06T02:51:34.116Z,1007.95
2016-04-06T02:52:34.072Z,1007.94
2016-04-06T02:53:34.028Z,1007.9
2016-04-06T02:54:33.984Z,1007.9
2016-04-06T02:55:33.939Z,1007.95
2016-04-06T02:56:33.879Z,1007.88
2016-04-06T02:57:33.835Z,1007.9
2016-04-06T02:58:33.791Z,1007.85
2016-04-06T02:59:33.747Z,1007.91
2016-04-06T03:00:33.703Z,1007.86
2016-04-06T03:01:33.643Z,1007.87
2016-04-06T03:02:33.599Z,1007.9
2016-04-06T03:03:33.555Z,1007.84
2016-04-06T03:04:33.714Z,1007.85
2016-04-06T03:05:33.467Z,1007.88
2016-04-06T03:06:33.422Z,1007.9
2016-04-06T03:07:33.362Z,1007.87
2016-04-06T03:08:33.333Z,1007.84
2016-04-06T03:09:33.571Z,1007.86
2016-04-06T03:10:33.229Z,1007.87
2016-04-06T03:11:33.185Z,1007.88
2016-04-06T03:12:33.141Z,1007.85
2016-04-06T03:13:36.097Z,1007.9
2016-04-06T03:14:33.038Z,1007.86
2016-04-06T03:15:32.993Z,1007.85
2016-04-06T03:16:32.949Z,1007.85
2016-04-06T03:17:32.904Z,1007.83
2016-04-06T03:18:32.860Z,1007.88
2016-04-06T03:19:32.801Z,1007.87
2016-04-06T03:20:32.757Z,1007.84
2016-04-06T03:21:32.713Z,1007.86
2016-04-06T03:22:32.668Z,1007.82
2016-04-06T03:23:32.624Z,1007.83
2016-04-06T03:24:32.579Z,1007.79
2016-04-06T03:25:32.520Z,1007.84
2016-04-06T03:26:32.475Z,1007.86
2016-04-06T03:27:32.431Z,1007.84
2016-04-06T03:28:32.387Z,1007.84
2016-04-06T03:29:32.342Z,1007.87
2016-04-06T03:30:32.284Z,1007.84
2016-04-06T03:31:35.255Z,1007.89
2016-04-06T03:32:32.195Z,1007.83
2016-04-06T03:33:32.151Z,1007.88
2016-04-06T03:34:32.107Z,1007.85
2016-04-06T03:35:32.062Z,1007.88
2016-04-06T03:36:32.003Z,1007.85
2016-04-06T03:37:31.974Z,1007.86
2016-04-06T03:38:34.914Z,1007.81
2016-04-06T03:39:31.869Z,1007.83
2016-04-06T03:40:31.825Z,1007.85
2016-04-06T03:41:31.782Z,1007.86
2016-04-06T03:42:31.738Z,1007.84
2016-04-06T03:43:31.678Z,1007.82
2016-04-06T03:44:31.633Z,1007.81
2016-04-06T03:45:31.589Z,1007.77
2016-04-06T03:46:31.545Z,1007.79
2016-04-06T03:47:31.501Z,1007.79
2016-04-06T03:48:34.472Z,1007.81
2016-04-06T03:49:34.413Z,1007.78
2016-04-06T03:50:31.352Z,1007.78
2016-04-06T03:51:31.309Z,1007.81
2016-04-06T03:52:31.265Z,1007.82
2016-04-06T03:53:31.220Z,1007.81
2016-04-06T03:54:31.176Z,1007.81
2016-04-06T03:55:31.116Z,1007.8
2016-04-06T03:56:31.072Z,1007.82
2016-04-06T03:57:31.043Z,1007.83
2016-04-06T03:58:33.983Z,1007.83
2016-04-06T03:59:30.924Z,1007.84
2016-04-06T04:00:30.879Z,1007.79
2016-04-06T04:01:30.836Z,1007.86
2016-04-06T04:02:30.792Z,1007.84
2016-04-06T04:03:30.747Z,1007.83
2016-04-06T04:04:30.703Z,1007.85
2016-04-06T04:05:30.658Z,1007.84
2016-04-06T04:06:33.614Z,1007.84
2016-04-06T04:07:33.773Z,1007.82
2016-04-06T04:08:30.511Z,1007.84
2016-04-06T04:09:30.467Z,1007.87
2016-04-06T04:10:30.422Z,1007.84
2016-04-06T04:11:30.378Z,1007.83
2016-04-06T04:12:33.333Z,1007.84
2016-04-06T04:13:33.305Z,1007.86
2016-04-06T04:14:30.230Z,1007.87
2016-04-06T04:15:30.186Z,1007.85
2016-04-06T04:16:30.141Z,1007.88
2016-04-06T04:17:30.082Z,1007.87
2016-04-06T04:18:30.038Z,1007.89
2016-04-06T04:19:29.993Z,1007.86
2016-04-06T04:20:29.965Z,1007.87
2016-04-06T04:21:29.905Z,1007.87
2016-04-06T04:22:29.860Z,1007.88
2016-04-06T04:23:29.801Z,1007.9
2016-04-06T04:24:29.757Z,1007.87
2016-04-06T04:25:29.712Z,1007.89
2016-04-06T04:26:29.668Z,1007.91
2016-04-06T04:27:29.624Z,1007.9
2016-04-06T04:28:29.579Z,1007.89
2016-04-06T04:29:29.537Z,1007.89
2016-04-06T04:30:32.492Z,1007.89
2016-04-06T04:31:32.651Z,1007.86
2016-04-06T04:32:32.387Z,1007.87
2016-04-06T04:33:29.343Z,1007.91
2016-04-06T04:34:29.299Z,1007.84
2016-04-06T04:35:29.255Z,1007.9
2016-04-06T04:36:29.195Z,1007.86
2016-04-06T04:37:29.150Z,1007.84
2016-04-06T04:38:29.106Z,1007.9
2016-04-06T04:39:32.063Z,1007.86
2016-04-06T04:40:32.019Z,1007.86
2016-04-06T04:41:28.958Z,1007.86
2016-04-06T04:42:28.914Z,1007.9
2016-04-06T04:43:28.886Z,1007.86
2016-04-06T04:44:28.826Z,1007.92
2016-04-06T04:45:28.782Z,1007.9
2016-04-06T04:46:28.738Z,1007.92
2016-04-06T04:47:28.677Z,1007.95
2016-04-06T04:48:28.634Z,1007.94
2016-04-06T04:49:28.590Z,1007.96
2016-04-06T04:50:28.545Z,1007.96
2016-04-06T04:51:28.501Z,1007.94
2016-04-06T04:52:28.644Z,1007.94
2016-04-06T04:53:28.396Z,1007.96
2016-04-06T04:54:28.354Z,1007.98
2016-04-06T04:55:28.324Z,1007.94
2016-04-06T04:56:28.265Z,1007.97
2016-04-06T04:57:28.205Z,1007.97
2016-04-06T04:58:31.176Z,1007.97
2016-04-06T04:59:28.117Z,1007.95
2016-04-06T05:00:31.088Z,1008
2016-04-06T05:01:28.043Z,1007.97
2016-04-06T05:02:27.984Z,1007.99
2016-04-06T05:03:27.939Z,1008
2016-04-06T05:04:27.880Z,1007.99
2016-04-06T05:05:30.850Z,1008.02
2016-04-06T05:06:27.792Z,1008.07
2016-04-06T05:07:27.748Z,1008.06
2016-04-06T05:08:27.703Z,1008.07
2016-04-06T05:09:27.659Z,1008.06
2016-04-06T05:10:27.600Z,1008.03
2016-04-06T05:11:27.555Z,1008.05
2016-04-06T05:12:27.511Z,1008.05
2016-04-06T05:13:27.467Z,1008.08
2016-04-06T05:14:27.422Z,1008.06
2016-04-06T05:15:27.378Z,1008.06
2016-04-06T05:16:27.521Z,1008.06
2016-04-06T05:17:27.274Z,1008.05
2016-04-06T05:18:27.230Z,1008.04
2016-04-06T05:19:27.186Z,1008.01
2016-04-06T05:20:27.141Z,1007.99
2016-04-06T05:21:27.097Z,1008.02
2016-04-06T05:22:27.038Z,1007.99
2016-04-06T05:23:26.993Z,1008.05
2016-04-06T05:24:29.949Z,1008.05
2016-04-06T05:25:26.905Z,1008.05
2016-04-06T05:26:26.860Z,1008.06
2016-04-06T05:27:26.817Z,1008.07
2016-04-06T05:28:26.768Z,1008.08
2016-04-06T05:29:26.723Z,1008.09
2016-04-06T05:30:26.663Z,1008.09
2016-04-06T05:31:26.620Z,1008.12
2016-04-06T05:32:26.576Z,1008.1
2016-04-06T05:33:29.531Z,1008.1
2016-04-06T05:34:26.487Z,1008.16
2016-04-06T05:35:26.443Z,1008.17
2016-04-06T05:36:26.384Z,1008.1
2016-04-06T05:37:26.339Z,1008.15
2016-04-06T05:38:26.294Z,1008.14
2016-04-06T05:39:26.251Z,1008.17
2016-04-06T05:40:29.206Z,1008.17
2016-04-06T05:41:26.147Z,1008.18
2016-04-06T05:42:26.103Z,1008.19
2016-04-06T05:43:26.058Z,1008.19
2016-04-06T05:44:26.014Z,1008.19
2016-04-06T05:45:25.970Z,1008.21
2016-04-06T05:46:25.925Z,1008.23
2016-04-06T05:47:25.866Z,1008.22
2016-04-06T05:48:25.821Z,1008.26
2016-04-06T05:49:25.777Z,1008.22
2016-04-06T05:50:25.733Z,1008.27
2016-04-06T05:51:25.688Z,1008.27
2016-04-06T05:52:25.644Z,1008.29
2016-04-06T05:53:25.585Z,1008.25
2016-04-06T05:54:25.557Z,1008.26
2016-04-06T05:55:25.496Z,1008.28
2016-04-06T05:56:25.452Z,1008.27
2016-04-06T05:57:25.407Z,1008.26
2016-04-06T05:58:28.349Z,1008.25
2016-04-06T05:59:28.321Z,1008.28
2016-04-06T06:00:25.259Z,1008.24
2016-04-06T06:01:25.232Z,1008.25
2016-04-06T06:02:25.171Z,1008.28
2016-04-06T06:03:25.138Z,1008.3
2016-04-06T06:04:25.124Z,1008.29
2016-04-06T06:05:25.125Z,1008.3
2016-04-06T06:06:28.126Z,1008.35
2016-04-06T06:07:28.128Z,1008.34
2016-04-06T06:08:28.137Z,1008.35
2016-04-06T06:09:28.094Z,1008.27
2016-04-06T06:10:25.050Z,1008.3
2016-04-06T06:11:25.021Z,1008.37
2016-04-06T06:12:25.213Z,1008.34
2016-04-06T06:13:24.963Z,1008.34
2016-04-06T06:14:24.925Z,1008.36
2016-04-06T06:15:27.887Z,1008.35
2016-04-06T06:16:27.832Z,1008.32
2016-04-06T06:17:24.996Z,1008.32
2016-04-06T06:18:24.754Z,1008.3
2016-04-06T06:19:24.712Z,1008.32
2016-04-06T06:20:24.670Z,1008.37
2016-04-06T06:21:24.628Z,1008.34
2016-04-06T06:22:24.852Z,1008.32
2016-04-06T06:23:24.544Z,1008.3
2016-04-06T06:24:24.486Z,1008.29
2016-04-06T06:25:24.443Z,1008.34
2016-04-06T06:26:24.399Z,1008.28
2016-04-06T06:27:24.339Z,1008.28
2016-04-06T06:28:24.296Z,1008.34
2016-04-06T06:29:24.253Z,1008.33
2016-04-06T06:30:24.209Z,1008.32
2016-04-06T06:31:24.368Z,1008.32
2016-04-06T06:32:24.121Z,1008.34
2016-04-06T06:33:24.061Z,1008.31
2016-04-06T06:34:24.032Z,1008.32
2016-04-06T06:35:23.973Z,1008.33
2016-04-06T06:36:23.929Z,1008.37
2016-04-06T06:37:23.885Z,1008.33
2016-04-06T06:38:23.856Z,1008.32
2016-04-06T06:39:23.796Z,1008.33
2016-04-06T06:40:23.737Z,1008.33
2016-04-06T06:41:26.708Z,1008.34
2016-04-06T06:42:23.648Z,1008.34
2016-04-06T06:43:23.604Z,1008.32
2016-04-06T06:44:23.560Z,1008.31
2016-04-06T06:45:23.516Z,1008.33
2016-04-06T06:46:23.456Z,1008.27
2016-04-06T06:47:23.411Z,1008.27
2016-04-06T06:48:23.367Z,1008.28
2016-04-06T06:49:23.323Z,1008.32
2016-04-06T06:50:23.279Z,1008.33
2016-04-06T06:51:23.297Z,1008.31
2016-04-06T06:52:23.175Z,1008.32
2016-04-06T06:53:23.131Z,1008.3
2016-04-06T06:54:23.102Z,1008.35
2016-04-06T06:55:23.042Z,1008.35
2016-04-06T06:56:22.998Z,1008.34
2016-04-06T06:57:22.955Z,1008.38
2016-04-06T06:58:25.910Z,1008.36
2016-04-06T06:59:22.849Z,1008.37
2016-04-06T07:00:22.805Z,1008.33
2016-04-06T07:01:22.762Z,1008.35
2016-04-06T07:02:22.718Z,1008.33
2016-04-06T07:03:22.674Z,1008.32
2016-04-06T07:04:22.613Z,1008.36
2016-04-06T07:05:22.585Z,1008.4
2016-04-06T07:06:22.525Z,1008.4
2016-04-06T07:07:22.496Z,1008.36
2016-04-06T07:08:22.437Z,1008.31
2016-04-06T07:09:22.393Z,1008.36
2016-04-06T07:10:22.349Z,1008.38
2016-04-06T07:11:22.288Z,1008.34
2016-04-06T07:12:22.245Z,1008.4
2016-04-06T07:13:23.137Z,1008.4
2016-04-06T07:14:22.156Z,1008.36
2016-04-06T07:15:22.533Z,1008.33
2016-04-06T07:16:22.048Z,1008.32
2016-04-06T07:17:25.023Z,1008.38
2016-04-06T07:18:21.961Z,1008.4
2016-04-06T07:19:21.917Z,1008.41
2016-04-06T07:20:21.888Z,1008.39
2016-04-06T07:21:21.845Z,1008.39
2016-04-06T07:22:21.769Z,1008.42
2016-04-06T07:23:24.728Z,1008.44
2016-04-06T07:24:21.712Z,1008.48
2016-04-06T07:25:21.637Z,1008.46
2016-04-06T07:26:21.795Z,1008.47
2016-04-06T07:27:21.532Z,1008.47
2016-04-06T07:28:21.503Z,1008.51
2016-04-06T07:29:21.444Z,1008.48
2016-04-06T07:30:21.399Z,1008.51
2016-04-06T07:31:21.371Z,1008.53
2016-04-06T07:32:21.561Z,1008.51
2016-04-06T07:33:21.266Z,1008.47
2016-04-06T07:34:21.223Z,1008.49
2016-04-06T07:35:21.257Z,1008.49
2016-04-06T07:36:21.119Z,1008.49
2016-04-06T07:37:21.090Z,1008.52
2016-04-06T07:38:21.030Z,1008.48
2016-04-06T07:39:20.986Z,1008.46
2016-04-06T07:40:20.927Z,1008.49
2016-04-06T07:41:20.882Z,1008.5
2016-04-06T07:42:20.869Z,1008.51
2016-04-06T07:43:20.794Z,1008.55
2016-04-06T07:44:20.734Z,1008.47
2016-04-06T07:45:20.690Z,1008.5
2016-04-06T07:46:20.662Z,1008.47
2016-04-06T07:47:20.618Z,1008.49
2016-04-06T07:48:20.557Z,1008.49
2016-04-06T07:49:23.516Z,1008.51
2016-04-06T07:50:20.673Z,1008.48
2016-04-06T07:51:20.425Z,1008.5
2016-04-06T07:52:20.365Z,1008.52
2016-04-06T07:53:20.320Z,1008.53
2016-04-06T07:54:20.276Z,1008.54
2016-04-06T07:55:20.233Z,1008.53
2016-04-06T07:56:20.188Z,1008.55
2016-04-06T07:57:20.144Z,1008.55
2016-04-06T07:58:20.084Z,1008.58
2016-04-06T07:59:20.040Z,1008.48
2016-04-06T08:00:19.996Z,1008.57
2016-04-06T08:01:19.952Z,1008.53
2016-04-06T08:02:19.907Z,1008.54
2016-04-06T08:03:19.864Z,1008.53
2016-04-06T08:04:19.803Z,1008.55
2016-04-06T08:05:19.805Z,1008.54
2016-04-06T08:06:19.715Z,1008.64
2016-04-06T08:07:19.671Z,1008.52
2016-04-06T08:08:19.627Z,1008.54
2016-04-06T08:09:19.567Z,1008.54
2016-04-06T08:10:19.523Z,1008.55
2016-04-06T08:11:19.494Z,1008.5
2016-04-06T08:12:19.435Z,1008.53
2016-04-06T08:13:19.390Z,1008.54
2016-04-06T08:14:19.362Z,1008.53
2016-04-06T08:15:19.302Z,1008.5
2016-04-06T08:16:19.257Z,1008.47
2016-04-06T08:17:19.198Z,1008.49
2016-04-06T08:18:19.231Z,1008.43
2016-04-06T08:19:19.109Z,1008.46
2016-04-06T08:20:19.096Z,1008.48
2016-04-06T08:21:19.052Z,1008.44
2016-04-06T08:22:18.961Z,1008.51
2016-04-06T08:23:18.933Z,1008.52
2016-04-06T08:24:18.951Z,1008.55
2016-04-06T08:25:18.829Z,1008.56
2016-04-06T08:26:18.816Z,1008.54
2016-04-06T08:27:18.740Z,1008.56
2016-04-06T08:28:18.680Z,1008.55
2016-04-06T08:29:18.762Z,1008.56
2016-04-06T08:30:18.717Z,1008.53
2016-04-06T08:31:18.533Z,1008.53
2016-04-06T08:32:18.503Z,1008.55
2016-04-06T08:33:18.569Z,1008.56
2016-04-06T08:34:18.400Z,1008.56
2016-04-06T08:35:18.356Z,1008.58
2016-04-06T08:36:18.328Z,1008.56
2016-04-06T08:37:18.267Z,1008.59
2016-04-06T08:38:18.207Z,1008.58
2016-04-06T08:39:18.179Z,1008.55
2016-04-06T08:40:18.150Z,1008.52
2016-04-06T08:41:21.091Z,1008.56
2016-04-06T08:42:18.030Z,1008.49
2016-04-06T08:43:18.190Z,1008.52
2016-04-06T08:44:20.958Z,1008.55
2016-04-06T08:45:17.883Z,1008.47
2016-04-06T08:46:18.041Z,1008.47
2016-04-06T08:47:17.810Z,1008.49
2016-04-06T08:48:17.766Z,1008.46
2016-04-06T08:49:17.690Z,1008.45
2016-04-06T08:50:17.661Z,1008.41
2016-04-06T08:51:17.602Z,1008.39
2016-04-06T08:52:17.557Z,1008.4
2016-04-06T08:53:17.514Z,1008.39
2016-04-06T08:54:17.454Z,1008.4
2016-04-06T08:55:17.472Z,1008.41
2016-04-06T08:56:17.365Z,1008.37
2016-04-06T08:57:17.337Z,1008.37
2016-04-06T08:58:17.323Z,1008.37
2016-04-06T08:59:17.233Z,1008.43
2016-04-06T09:00:17.188Z,1008.37
2016-04-06T09:01:17.161Z,1008.37
2016-04-06T09:02:17.100Z,1008.37
2016-04-06T09:03:17.041Z,1008.4
2016-04-06T09:04:16.996Z,1008.42
2016-04-06T09:05:22.702Z,1008.36
2016-04-06T09:06:16.924Z,1008.35
2016-04-06T09:07:16.911Z,1008.4
2016-04-06T09:08:16.850Z,1008.41
2016-04-06T09:09:16.760Z,1008.36
2016-04-06T09:10:16.715Z,1008.27
2016-04-06T09:11:17.358Z,1008.36
2016-04-06T09:12:16.643Z,1008.34
2016-04-06T09:13:16.660Z,1008.33
2016-04-06T09:14:16.555Z,1008.35
2016-04-06T09:15:16.885Z,1008.37
2016-04-06T09:16:16.450Z,1008.38
2016-04-06T09:17:16.390Z,1008.34
2016-04-06T09:18:16.346Z,1008.43
2016-04-06T09:19:16.334Z,1008.42
2016-04-06T09:20:16.429Z,1008.34
2016-04-06T09:21:16.215Z,1008.34
2016-04-06T09:22:16.154Z,1008.29
2016-04-06T09:23:16.109Z,1008.3
2016-04-06T09:24:16.098Z,1008.39
2016-04-06T09:25:16.021Z,1008.31
2016-04-06T09:26:15.978Z,1008.27
2016-04-06T09:27:15.917Z,1008.26
2016-04-06T09:28:15.889Z,1008.2
2016-04-06T09:29:15.829Z,1008.23
2016-04-06T09:30:15.784Z,1008.23
2016-04-06T09:31:15.741Z,1008.2
2016-04-06T09:32:15.681Z,1008.16
2016-04-06T09:33:15.653Z,1008.16
2016-04-06T09:34:15.608Z,1008.13
2016-04-06T09:35:15.642Z,1008.13
2016-04-06T09:36:15.505Z,1008.09
2016-04-06T09:37:15.507Z,1008.06
2016-04-06T09:38:15.400Z,1008.08
2016-04-06T09:39:15.372Z,1008.07
2016-04-06T09:40:15.374Z,1008.07
2016-04-06T09:41:15.268Z,1008.07
2016-04-06T09:42:15.213Z,1008.07
2016-04-06T09:43:15.168Z,1008
2016-04-06T09:44:15.124Z,1007.99
2016-04-06T09:45:15.073Z,1007.96
2016-04-06T09:46:15.029Z,1007.94
2016-04-06T09:47:14.985Z,1007.94
2016-04-06T09:48:14.941Z,1007.87
2016-04-06T09:49:14.896Z,1007.9
2016-04-06T09:50:14.837Z,1007.94
2016-04-06T09:51:14.793Z,1007.86
2016-04-06T09:52:14.811Z,1007.79
2016-04-06T09:53:14.719Z,1007.81
2016-04-06T09:54:14.660Z,1007.89
2016-04-06T09:55:14.741Z,1007.87
2016-04-06T09:56:14.587Z,1007.82
2016-04-06T09:57:14.512Z,1007.76
2016-04-06T09:58:14.765Z,1007.72
2016-04-06T09:59:14.423Z,1007.66
2016-04-06T10:00:14.379Z,1007.68
2016-04-06T10:01:14.334Z,1007.64
2016-04-06T10:02:14.276Z,1007.62
2016-04-06T10:03:14.231Z,1007.64
2016-04-06T10:04:14.187Z,1007.58
2016-04-06T10:05:14.143Z,1007.66
2016-04-06T10:06:14.098Z,1007.68
2016-04-06T10:07:14.054Z,1007.65
2016-04-06T10:08:14.010Z,1007.59
2016-04-06T10:09:13.950Z,1007.66
2016-04-06T10:10:13.906Z,1007.55
2016-04-06T10:11:13.862Z,1007.64
2016-04-06T10:12:13.817Z,1007.65
2016-04-06T10:13:13.789Z,1007.54
2016-04-06T10:14:13.714Z,1007.63
2016-04-06T10:15:13.685Z,1007.75
2016-04-06T10:16:13.641Z,1007.64
2016-04-06T10:17:13.597Z,1007.56
2016-04-06T10:18:13.537Z,1007.48
2016-04-06T10:19:13.493Z,1007.54
2016-04-06T10:20:13.449Z,1007.5
2016-04-06T10:21:13.389Z,1007.5
2016-04-06T10:22:13.344Z,1007.5
2016-04-06T10:23:13.316Z,1007.56
2016-04-06T10:24:13.257Z,1007.48
2016-04-06T10:25:13.274Z,1007.54
2016-04-06T10:26:13.183Z,1007.49
2016-04-06T10:27:13.124Z,1007.59
2016-04-06T10:28:13.080Z,1007.57
2016-04-06T10:29:16.035Z,1007.51
2016-04-06T10:30:12.975Z,1007.48
2016-04-06T10:31:13.072Z,1007.52
2016-04-06T10:32:12.871Z,1007.56
2016-04-06T10:33:12.874Z,1007.54
2016-04-06T10:34:12.798Z,1007.58
2016-04-06T10:35:12.771Z,1007.54
2016-04-06T10:36:12.695Z,1007.49
2016-04-06T10:37:12.634Z,1007.46
2016-04-06T10:38:12.590Z,1007.45
2016-04-06T10:39:12.547Z,1007.54
2016-04-06T10:40:12.503Z,1007.44
2016-04-06T10:41:12.505Z,1007.41
2016-04-06T10:42:12.414Z,1007.52
2016-04-06T10:43:12.370Z,1007.39
2016-04-06T10:44:12.310Z,1007.38
2016-04-06T10:45:12.266Z,1007.39
2016-04-06T10:46:12.222Z,1007.36
2016-04-06T10:47:12.162Z,1007.37
2016-04-06T10:48:12.134Z,1007.36
2016-04-06T10:49:12.074Z,1007.35
2016-04-06T10:50:12.029Z,1007.37
2016-04-06T10:51:11.985Z,1007.39
2016-04-06T10:52:11.988Z,1007.39
2016-04-06T10:53:11.897Z,1007.36
2016-04-06T10:54:11.852Z,1007.34
2016-04-06T10:55:11.793Z,1007.35
2016-04-06T10:56:11.733Z,1007.29
2016-04-06T10:57:11.860Z,1007.33
2016-04-06T10:58:11.644Z,1007.29
2016-04-06T10:59:11.616Z,1007.32
2016-04-06T11:00:11.571Z,1007.3
2016-04-06T11:01:11.637Z,1007.33
2016-04-06T11:02:11.545Z,1007.31
2016-04-06T11:03:11.408Z,1007.37
2016-04-06T11:04:11.379Z,1007.3
2016-04-06T11:05:11.319Z,1007.28
2016-04-06T11:06:11.275Z,1007.25
2016-04-06T11:07:11.232Z,1007.22
2016-04-06T11:08:11.187Z,1007.26
2016-04-06T11:09:11.142Z,1007.27
2016-04-06T11:10:11.115Z,1007.3
2016-04-06T11:11:11.039Z,1007.25
2016-04-06T11:12:10.994Z,1007.18
2016-04-06T11:13:10.951Z,1007.13
2016-04-06T11:14:10.923Z,1007.11
2016-04-06T11:15:10.862Z,1007.15
2016-04-06T11:16:10.817Z,1007.11
2016-04-06T11:17:10.758Z,1007.1
2016-04-06T11:18:10.714Z,1007.11
2016-04-06T11:19:10.669Z,1007.13
2016-04-06T11:20:10.625Z,1007.05
2016-04-06T11:21:10.566Z,1007.01
2016-04-06T11:22:10.522Z,1007.12
2016-04-06T11:23:10.477Z,1006.99
2016-04-06T11:24:10.449Z,1007.03
2016-04-06T11:25:10.389Z,1006.96
2016-04-06T11:26:10.329Z,1006.97
2016-04-06T11:27:10.285Z,1006.98
2016-04-06T11:28:10.241Z,1006.97
2016-04-06T11:29:10.196Z,1006.93
2016-04-06T11:30:10.184Z,1006.92
2016-04-06T11:31:10.123Z,1006.89
2016-04-06T11:32:10.079Z,1006.86
2016-04-06T11:33:10.020Z,1006.88
2016-04-06T11:34:10.398Z,1006.87
2016-04-06T11:35:09.916Z,1006.86
2016-04-06T11:36:09.871Z,1006.84
2016-04-06T11:37:09.828Z,1006.76
2016-04-06T11:38:09.768Z,1006.85
2016-04-06T11:39:09.754Z,1006.91
2016-04-06T11:40:09.679Z,1006.83
2016-04-06T11:41:09.681Z,1006.78
2016-04-06T11:42:09.607Z,1006.84
2016-04-06T11:43:09.547Z,1006.8
2016-04-06T11:44:12.518Z,1006.81
2016-04-06T11:45:09.442Z,1006.77
2016-04-06T11:46:09.430Z,1006.74
2016-04-06T11:47:09.355Z,1006.79
2016-04-06T11:48:09.326Z,1006.83
2016-04-06T11:49:09.266Z,1006.78
2016-04-06T11:50:09.222Z,1006.83
2016-04-06T11:51:09.241Z,1006.75
2016-04-06T11:52:09.180Z,1006.74
2016-04-06T11:53:09.167Z,1006.71
2016-04-06T11:54:09.029Z,1006.74
2016-04-06T11:55:08.985Z,1006.75
2016-04-06T11:56:08.941Z,1006.65
2016-04-06T11:57:08.897Z,1006.66
2016-04-06T11:58:08.853Z,1006.6
2016-04-06T11:59:08.793Z,1006.54
2016-04-06T12:00:08.796Z,1006.58
2016-04-06T12:01:08.767Z,1006.54
2016-04-06T12:02:08.707Z,1006.62
2016-04-06T12:03:08.632Z,1006.56
2016-04-06T12:04:08.572Z,1006.51
2016-04-06T12:05:08.512Z,1006.56
2016-04-06T12:06:08.515Z,1006.47
2016-04-06T12:07:08.423Z,1006.4
2016-04-06T12:08:08.387Z,1006.39